createdAt,value
2022-08-19T00:02:10.796Z,29.43
2022-08-19T00:06:28.485Z,29.52
2022-08-19T00:10:44.604Z,29.27
2022-08-19T00:15:00.872Z,29.43
2022-08-19T00:19:18.020Z,29.20
2022-08-19T00:23:35.990Z,29.19
2022-08-19T00:27:52.109Z,28.96
2022-08-19T00:32:08.329Z,28.72
2022-08-19T00:36:27.062Z,28.90
2022-08-19T00:40:47.637Z,28.86
2022-08-19T00:45:09.835Z,28.82
2022-08-19T00:49:42.741Z,28.67
2022-08-19T00:54:00.044Z,28.64
2022-08-19T00:58:18.603Z,28.73
2022-08-19T01:02:34.736Z,28.35
2022-08-19T01:06:50.863Z,28.42
2022-08-19T01:11:07.993Z,28.33
2022-08-19T01:15:31.358Z,28.48
2022-08-19T01:19:48.020Z,28.35
2022-08-19T01:24:04.378Z,28.25
2022-08-19T01:28:34.094Z,28.21
2022-08-19T01:32:57.441Z,28.21
2022-08-19T01:37:14.907Z,28.06
2022-08-19T01:41:41.603Z,28.15
2022-08-19T01:45:57.701Z,28.06
2022-08-19T01:50:14.388Z,28.03
2022-08-19T01:54:30.781Z,27.88
2022-08-19T01:58:52.446Z,27.93
2022-08-19T02:03:10.460Z,27.77
2022-08-19T02:07:26.539Z,27.61
2022-08-19T02:11:42.676Z,27.86
2022-08-19T02:15:58.975Z,27.52
2022-08-19T02:20:16.381Z,27.53
2022-08-19T02:24:32.507Z,27.66
2022-08-19T02:28:49.625Z,27.48
2022-08-19T02:33:06.242Z,27.83
2022-08-19T02:37:54.426Z,27.62
2022-08-19T02:42:10.812Z,27.45
2022-08-19T02:46:31.993Z,27.39
2022-08-19T02:50:53.040Z,27.38
2022-08-19T02:55:10.044Z,27.20
2022-08-19T02:59:27.551Z,27.17
2022-08-19T03:03:43.576Z,27.13
2022-08-19T03:08:00.098Z,27.35
2022-08-19T03:12:16.185Z,27.09
2022-08-19T03:16:36.363Z,27.05
2022-08-19T03:20:55.622Z,27.23
2022-08-19T03:25:13.142Z,27.22
2022-08-19T03:29:32.754Z,27.19
2022-08-19T03:33:48.753Z,27.10
2022-08-19T03:38:07.894Z,27.11
2022-08-19T03:42:38.842Z,27.07
2022-08-19T03:47:01.338Z,27.07
2022-08-19T03:51:30.610Z,27.04
2022-08-19T03:55:47.172Z,27.01
2022-08-19T04:00:13.452Z,26.82
2022-08-19T04:04:30.472Z,26.87
2022-08-19T04:08:49.391Z,27.03
2022-08-19T04:13:06.520Z,26.97
2022-08-19T04:17:23.519Z,27.04
2022-08-19T04:21:39.734Z,27.09
2022-08-19T04:25:56.865Z,27.18
2022-08-19T04:30:14.277Z,27.11
2022-08-19T04:34:31.127Z,27.13
2022-08-19T04:38:47.866Z,27.28
2022-08-19T04:43:03.934Z,27.21
2022-08-19T04:47:20.021Z,27.38
2022-08-19T04:51:56.632Z,27.47
2022-08-19T04:56:15.829Z,27.35
2022-08-19T05:00:31.848Z,27.37
2022-08-19T05:04:51.423Z,27.50
2022-08-19T05:09:07.683Z,27.65
2022-08-19T05:13:24.465Z,27.48
2022-08-19T05:18:00.514Z,27.49
2022-08-19T05:22:35.415Z,27.84
2022-08-19T05:26:54.254Z,27.71
2022-08-19T05:31:10.267Z,27.84
2022-08-19T05:35:26.303Z,27.99
2022-08-19T05:39:42.322Z,28.21
2022-08-19T05:43:59.891Z,28.03
2022-08-19T05:48:16.059Z,28.35
2022-08-19T05:52:32.175Z,28.52
2022-08-19T05:56:50.297Z,28.66
2022-08-19T06:01:11.315Z,28.86
2022-08-19T06:05:27.431Z,28.53
2022-08-19T06:09:43.683Z,28.84
2022-08-19T06:14:19.069Z,29.19
2022-08-19T06:18:35.325Z,28.99
2022-08-19T06:22:52.585Z,29.01
2022-08-19T06:27:08.993Z,29.34
2022-08-19T06:31:28.907Z,29.48
2022-08-19T06:40:07.070Z,29.62
2022-08-19T06:44:27.269Z,29.74
2022-08-19T06:48:45.335Z,29.72
2022-08-19T06:53:04.540Z,30.02
2022-08-19T06:57:20.975Z,30.34
2022-08-19T07:01:43.082Z,30.48
2022-08-19T07:06:05.388Z,30.17
2022-08-19T07:10:23.212Z,30.13
2022-08-19T07:14:42.310Z,30.21
2022-08-19T07:18:59.213Z,30.41
2022-08-19T07:23:16.473Z,30.71
2022-08-19T07:27:33.709Z,30.43
2022-08-19T07:31:50.794Z,30.91
2022-08-19T07:36:12.304Z,30.96
2022-08-19T07:40:28.318Z,31.24
2022-08-19T07:44:50.208Z,31.19
2022-08-19T07:49:08.189Z,31.50
2022-08-19T07:53:25.363Z,32.27
2022-08-19T07:57:41.555Z,32.60
2022-08-19T08:02:00.663Z,32.20
2022-08-19T08:06:35.865Z,32.74
2022-08-19T08:10:53.111Z,32.82
2022-08-19T08:15:19.538Z,32.92
2022-08-19T08:19:35.852Z,33.38
2022-08-19T08:23:55.655Z,33.23
2022-08-19T08:28:17.637Z,33.59
2022-08-19T08:32:34.593Z,33.43
2022-08-19T08:36:52.886Z,34.02
2022-08-19T08:41:35.306Z,34.16
2022-08-19T08:45:57.558Z,34.66
2022-08-19T08:50:39.248Z,34.88
2022-08-19T08:54:59.796Z,34.91
2022-08-19T08:59:25.739Z,34.93
2022-08-19T09:03:43.796Z,35.40
2022-08-19T09:08:14.945Z,35.40
2022-08-19T09:12:46.030Z,35.08
2022-08-19T09:17:10.087Z,35.39
2022-08-19T09:21:33.210Z,35.93
2022-08-19T09:25:49.514Z,36.24
2022-08-19T09:30:08.556Z,36.25
2022-08-19T09:34:24.653Z,36.49
2022-08-19T09:38:44.200Z,36.65
2022-08-19T09:43:10.079Z,37.07
2022-08-19T09:47:29.264Z,36.54
2022-08-19T09:51:51.187Z,36.66
2022-08-19T09:56:08.434Z,36.79
2022-08-19T10:00:26.348Z,36.93
2022-08-19T10:05:00.997Z,37.23
2022-08-19T10:09:18.395Z,37.57
2022-08-19T10:13:51.186Z,37.93
2022-08-19T10:18:08.306Z,37.82
2022-08-19T10:22:25.544Z,38.27
2022-08-19T10:26:48.668Z,38.43
2022-08-19T10:31:15.574Z,38.30
2022-08-19T10:35:56.297Z,38.41
2022-08-19T10:40:12.722Z,37.77
2022-08-19T10:44:32.612Z,38.45
2022-08-19T10:48:48.868Z,38.71
2022-08-19T10:53:09.757Z,39.18
2022-08-19T10:57:45.999Z,39.12
2022-08-19T11:02:10.971Z,38.77
2022-08-19T11:06:27.230Z,39.29
2022-08-19T11:10:50.254Z,39.85
2022-08-19T11:15:12.077Z,40.31
2022-08-19T11:19:28.558Z,39.99
2022-08-19T11:23:45.229Z,40.06
2022-08-19T11:28:01.291Z,40.12
2022-08-19T11:32:17.452Z,40.30
2022-08-19T11:36:34.252Z,40.59
2022-08-19T11:40:57.294Z,41.01
2022-08-19T11:45:15.108Z,40.89
2022-08-19T11:49:31.298Z,40.89
2022-08-19T11:53:47.404Z,41.10
2022-08-19T11:58:03.880Z,41.31
2022-08-19T12:02:20.270Z,41.34
2022-08-19T12:06:39.361Z,40.73
2022-08-19T12:10:55.486Z,41.22
2022-08-19T12:15:13.106Z,40.34
2022-08-19T12:19:29.385Z,39.87
2022-08-19T12:23:53.814Z,39.77
2022-08-19T12:28:11.665Z,39.89
2022-08-19T12:32:27.829Z,40.04
2022-08-19T12:36:44.809Z,39.14
2022-08-19T12:41:01.390Z,39.37
2022-08-19T12:45:17.663Z,39.51
2022-08-19T12:49:52.126Z,39.81
2022-08-19T12:54:10.823Z,39.98
2022-08-19T12:58:27.964Z,39.57
2022-08-19T13:02:46.681Z,39.16
2022-08-19T13:07:03.395Z,39.73
2022-08-19T13:11:25.513Z,40.34
2022-08-19T13:15:46.269Z,40.07
2022-08-19T13:20:03.440Z,39.91
2022-08-19T13:24:19.727Z,40.03
2022-08-19T13:28:54.983Z,39.83
2022-08-19T13:33:17.111Z,39.44
2022-08-19T13:37:42.230Z,39.33
2022-08-19T13:41:59.581Z,38.86
2022-08-19T13:46:16.273Z,38.64
2022-08-19T13:50:32.828Z,37.69
2022-08-19T13:54:49.605Z,35.28
2022-08-19T13:59:05.802Z,34.03
2022-08-19T14:03:22.095Z,33.12
2022-08-19T14:07:38.543Z,32.19
2022-08-19T14:11:54.610Z,32.24
2022-08-19T14:16:12.964Z,32.05
2022-08-19T14:20:29.133Z,31.85
2022-08-19T14:24:48.040Z,31.55
2022-08-19T14:29:04.662Z,32.00
2022-08-19T14:33:23.576Z,32.14
2022-08-19T14:37:46.326Z,32.13
2022-08-19T14:42:02.797Z,32.36
2022-08-19T14:46:22.857Z,32.66
2022-08-19T14:50:38.966Z,32.82
2022-08-19T14:54:55.037Z,32.93
2022-08-19T14:59:11.725Z,33.26
2022-08-19T15:03:28.440Z,32.89
2022-08-19T15:07:44.784Z,32.42
2022-08-19T15:12:02.575Z,32.86
2022-08-19T15:16:21.596Z,33.44
2022-08-19T15:20:37.813Z,33.50
2022-08-19T15:24:55.434Z,33.73
2022-08-19T15:29:17.512Z,33.33
2022-08-19T15:33:37.399Z,32.93
2022-08-19T15:37:54.860Z,32.44
2022-08-19T15:42:11.006Z,32.51
2022-08-19T15:46:33.448Z,32.00
2022-08-19T15:50:49.637Z,31.96
2022-08-19T15:55:07.648Z,31.73
2022-08-19T15:59:46.771Z,31.82
2022-08-19T16:04:22.074Z,31.88
2022-08-19T16:08:48.728Z,32.01
2022-08-19T16:13:06.229Z,32.08
2022-08-19T16:17:22.579Z,31.95
2022-08-19T16:21:41.691Z,31.85
2022-08-19T16:25:58.118Z,32.18
2022-08-19T16:30:14.213Z,32.22
2022-08-19T16:34:30.347Z,31.95
2022-08-19T16:38:46.682Z,31.85
2022-08-19T16:43:03.063Z,31.93
2022-08-19T16:47:19.267Z,31.50
2022-08-19T16:51:35.573Z,31.34
2022-08-19T16:55:57.267Z,31.58
2022-08-19T17:00:15.183Z,31.52
2022-08-19T17:04:31.837Z,31.27
2022-08-19T17:08:49.656Z,31.32
2022-08-19T17:13:07.053Z,31.32
2022-08-19T17:17:28.313Z,31.31
2022-08-19T17:21:45.336Z,30.82
2022-08-19T17:26:01.398Z,30.27
2022-08-19T17:30:18.227Z,30.33
2022-08-19T17:34:34.384Z,30.65
2022-08-19T17:38:51.575Z,30.99
2022-08-19T17:43:08.898Z,30.32
2022-08-19T17:47:25.642Z,30.11
2022-08-19T17:51:46.786Z,29.85
2022-08-19T17:56:02.944Z,29.64
2022-08-19T18:00:19.909Z,29.44
2022-08-19T18:04:38.622Z,29.42
2022-08-19T18:08:54.756Z,29.68
2022-08-19T18:13:17.140Z,29.76
2022-08-19T18:17:34.553Z,29.89
2022-08-19T18:21:50.670Z,29.95
2022-08-19T18:26:07.114Z,28.79
2022-08-19T18:30:24.924Z,29.58
2022-08-19T18:34:44.645Z,29.72
2022-08-19T18:39:19.441Z,28.01
2022-08-19T18:43:56.285Z,26.85
2022-08-19T18:48:30.931Z,27.05
2022-08-19T18:52:49.842Z,27.26
2022-08-19T18:57:06.260Z,27.31
2022-08-19T19:01:31.050Z,27.14
2022-08-19T19:05:48.876Z,26.98
2022-08-19T19:10:05.325Z,26.24
2022-08-19T19:14:46.042Z,26.70
2022-08-19T19:19:01.597Z,26.82
2022-08-19T19:23:17.692Z,25.89
2022-08-19T19:27:33.952Z,25.52
2022-08-19T19:31:53.226Z,25.36
2022-08-19T19:36:09.500Z,25.59
2022-08-19T19:40:25.802Z,25.63
2022-08-19T19:44:47.368Z,25.76
2022-08-19T19:49:04.695Z,25.46
2022-08-19T19:53:21.031Z,25.60
2022-08-19T19:57:40.132Z,25.54
2022-08-19T20:01:56.716Z,25.25
2022-08-19T20:06:18.048Z,25.17
2022-08-19T20:10:34.767Z,25.16
2022-08-19T20:14:50.949Z,25.05
2022-08-19T20:19:07.543Z,24.88
2022-08-19T20:23:24.040Z,24.34
2022-08-19T20:27:40.913Z,24.80
2022-08-19T20:31:59.440Z,24.44
2022-08-19T20:36:15.937Z,24.10
2022-08-19T20:40:34.186Z,24.22
2022-08-19T20:44:50.718Z,23.94
2022-08-19T20:49:06.946Z,23.29
2022-08-19T20:53:23.966Z,23.09
2022-08-19T20:57:40.213Z,23.00
2022-08-19T21:01:56.532Z,23.01
2022-08-19T21:06:14.428Z,23.11
2022-08-19T21:10:30.962Z,23.27
2022-08-19T21:14:47.468Z,23.35
2022-08-19T21:19:05.219Z,23.43
2022-08-19T21:23:26.235Z,23.37
2022-08-19T21:27:42.369Z,23.36
2022-08-19T21:31:58.642Z,23.38
2022-08-19T21:36:14.846Z,23.31
2022-08-19T21:40:31.231Z,23.37
2022-08-19T21:44:47.269Z,23.60
2022-08-19T21:49:03.520Z,24.11
2022-08-19T21:53:22.690Z,24.31
2022-08-19T21:57:41.437Z,24.23
2022-08-19T22:02:15.572Z,24.03
2022-08-19T22:06:33.797Z,24.14
2022-08-19T22:10:49.995Z,24.23
2022-08-19T22:15:09.254Z,24.21
2022-08-19T22:19:25.263Z,24.41
2022-08-19T22:23:42.574Z,24.31
2022-08-19T22:28:00.432Z,24.17
2022-08-19T22:32:28.018Z,24.10
2022-08-19T22:36:44.985Z,24.08
2022-08-19T22:41:01.176Z,23.90
2022-08-19T22:45:18.530Z,23.79
2022-08-19T22:49:34.683Z,24.00
2022-08-19T22:53:50.776Z,23.95
2022-08-19T22:58:06.924Z,24.06
2022-08-19T23:02:29.727Z,24.09
2022-08-19T23:06:45.872Z,24.09
2022-08-19T23:11:02.069Z,23.84
2022-08-19T23:15:25.900Z,23.89
2022-08-19T23:19:42.105Z,24.02
2022-08-19T23:23:58.371Z,24.03
2022-08-19T23:28:33.469Z,23.87
2022-08-19T23:32:52.402Z,23.96
2022-08-19T23:37:08.484Z,24.06
2022-08-19T23:41:27.261Z,24.11
2022-08-19T23:45:51.122Z,24.02
2022-08-19T23:50:08.522Z,24.06
2022-08-19T23:54:34.428Z,24.02
2022-08-19T23:58:59.433Z,24.03
